Time;durP1;ratioP1;P1;durP2;ratioP2;P2;SDS_P1;SDS_P2;PMS_P1;PMS_P2;Temp;Humidity;BMP_temperature;BMP_pressure;BME280_temperature;BME280_humidity;BME280_pressure;Samples;Min_cycle;Max_cycle;Signal;HPM_P1;HPM_P2
2023/02/16 00:01:26;;;;;;;30.42;14.35;;;7.20;96.70;;;;;;5074762;28;20371;-70
2023/02/16 00:03:53;;;;;;;30.77;14.20;;;7.20;96.90;;;;;;5074164;28;20465;-71
2023/02/16 00:06:19;;;;;;;30.05;14.02;;;7.10;97.00;;;;;;5073915;28;20033;-69
2023/02/16 00:08:47;;;;;;;33.13;14.85;;;7.10;97.00;;;;;;5073335;28;20079;-70
2023/02/16 00:14:25;;;;;;;27.60;12.88;;;7.20;96.90;;;;;;5073809;28;20128;-71
2023/02/16 00:16:55;;;;;;;29.35;14.38;;;7.10;96.80;;;;;;5073487;28;20063;-70
2023/02/16 00:19:23;;;;;;;27.17;13.20;;;7.10;96.80;;;;;;5073932;28;20027;-70
2023/02/16 00:21:51;;;;;;;28.30;13.75;;;7.00;96.90;;;;;;5073353;28;20111;-71
2023/02/16 00:24:17;;;;;;;27.70;13.43;;;7.00;97.00;;;;;;5073333;28;20024;-70
2023/02/16 00:26:45;;;;;;;31.02;14.07;;;7.00;97.10;;;;;;5073422;28;20072;-71
2023/02/16 00:29:35;;;;;;;31.33;14.52;;;7.00;97.00;;;;;;5073270;28;20114;-71
2023/02/16 00:32:03;;;;;;;33.75;13.95;;;6.90;97.00;;;;;;5060252;28;20063;-70
2023/02/16 00:34:37;;;;;;;28.45;13.90;;;6.90;97.10;;;;;;5073826;28;20017;-71
2023/02/16 00:37:05;;;;;;;30.02;13.70;;;6.90;97.10;;;;;;5073228;28;20028;-71
2023/02/16 00:39:32;;;;;;;;;;;7.00;97.20;;;;;;5073584;28;20063;-71
2023/02/16 00:42:03;;;;;;;29.83;13.25;;;7.00;97.30;;;;;;5073230;28;19948;-71
2023/02/16 00:44:51;;;;;;;29.73;14.20;;;7.10;97.00;;;;;;5073002;28;20259;-71
2023/02/16 00:47:38;;;;;;;28.70;13.57;;;7.10;97.00;;;;;;5073343;28;20055;-71
2023/02/16 00:50:18;;;;;;;29.42;14.30;;;7.10;97.00;;;;;;5071925;28;20034;-71
2023/02/16 00:52:47;;;;;;;30.08;13.98;;;7.00;97.10;;;;;;5073535;28;20025;-71
2023/02/16 00:55:24;;;;;;;29.25;14.07;;;7.00;97.00;;;;;;5073175;28;20098;-71
2023/02/16 00:58:05;;;;;;;35.90;14.93;;;7.10;97.10;;;;;;5071764;28;20099;-71
2023/02/16 01:00:36;;;;;;;27.98;13.77;;;7.00;97.30;;;;;;5071760;28;20033;-71
2023/02/16 01:03:07;;;;;;;32.55;16.20;;;7.00;97.20;;;;;;5073085;28;20039;-71
2023/02/16 01:05:33;;;;;;;35.83;16.25;;;7.00;97.20;;;;;;5071693;28;20455;-71
2023/02/16 01:13:27;;;;;;;33.10;15.32;;;7.10;97.10;;;;;;5072994;28;20089;-71
2023/02/16 01:15:53;;;;;;;32.05;16.02;;;7.10;97.20;;;;;;5071499;28;20028;-70
2023/02/16 01:18:20;;;;;;;32.83;14.45;;;7.20;97.20;;;;;;5072298;28;20482;-70
2023/02/16 01:20:46;;;;;;;34.47;15.35;;;7.00;97.10;;;;;;5072618;28;20036;-70
2023/02/16 01:23:12;;;;;;;34.70;15.40;;;7.00;97.20;;;;;;5072418;28;20040;-69
2023/02/16 01:25:38;;;;;;;35.28;16.25;;;7.10;97.30;;;;;;5072714;28;20453;-70
2023/02/16 01:28:25;;;;;;;30.98;16.55;;;7.00;97.20;;;;;;5072220;28;20466;-71
2023/02/16 01:30:51;;;;;;;35.95;16.85;;;6.90;97.30;;;;;;5072240;28;20044;-71
2023/02/16 01:33:18;;;;;;;35.53;16.63;;;6.90;97.30;;;;;;5072319;28;20119;-70
2023/02/16 01:35:45;;;;;;;37.90;17.83;;;6.90;97.30;;;;;;5072156;28;20501;-70
2023/02/16 01:38:23;;;;;;;33.92;16.35;;;6.90;97.30;;;;;;5070972;28;20055;-70
2023/02/16 01:41:21;;;;;;;37.33;17.92;;;6.90;97.40;;;;;;5072378;28;20052;-70
2023/02/16 01:44:09;;;;;;;38.63;16.92;;;6.90;97.40;;;;;;5071846;28;20021;-70
2023/02/16 01:46:42;;;;;;;35.78;16.80;;;6.80;97.40;;;;;;5058001;28;20441;-70
2023/02/16 01:49:17;;;;;;;38.75;18.13;;;6.80;97.40;;;;;;5071716;28;20447;-70
2023/02/16 01:52:09;;;;;;;36.47;17.02;;;6.80;97.50;;;;;;5070706;28;20036;-70
2023/02/16 01:54:46;;;;;;;37.38;16.77;;;6.80;97.50;;;;;;5071964;28;20032;-69
2023/02/16 01:57:37;;;;;;;41.22;17.92;;;6.80;97.50;;;;;;5071562;28;20036;-71
2023/02/16 02:00:10;;;;;;;39.38;18.00;;;6.70;97.70;;;;;;5071622;28;20058;-70
2023/02/16 02:02:41;;;;;;;39.28;17.67;;;6.70;97.60;;;;;;5070583;28;20427;-70
2023/02/16 02:05:36;;;;;;;41.58;18.25;;;6.70;97.60;;;;;;5071541;28;20032;-71
2023/02/16 02:08:24;;;;;;;42.33;18.13;;;6.70;97.70;;;;;;5071727;28;20121;-70
2023/02/16 02:11:05;;;;;;;35.33;17.13;;;6.60;97.70;;;;;;5071267;28;20104;-70
2023/02/16 02:13:39;;;;;;;37.92;17.80;;;6.60;97.70;;;;;;5071994;28;20025;-71
2023/02/16 02:16:05;;;;;;;39.50;18.02;;;6.60;97.80;;;;;;5071334;28;20111;-70
2023/02/16 02:18:31;;;;;;;40.05;18.23;;;6.60;97.80;;;;;;5070598;28;20257;-71
2023/02/16 02:24:02;;;;;;;39.78;17.63;;;6.60;97.80;;;;;;5071144;28;20039;-71
2023/02/16 02:26:37;;;;;;;39.35;17.63;;;6.60;98.00;;;;;;5070062;28;20459;-70
2023/02/16 02:29:14;;;;;;;41.08;18.13;;;6.50;97.90;;;;;;5071273;28;20048;-70
2023/02/16 02:31:56;;;;;;;43.70;18.13;;;6.50;98.10;;;;;;5071482;28;20355;-71
2023/02/16 02:34:36;;;;;;;40.75;18.67;;;6.40;98.30;;;;;;5071128;28;20047;-71
2023/02/16 02:37:27;;;;;;;40.65;17.70;;;6.50;98.00;;;;;;5088455;28;20150;-70
2023/02/16 02:40:14;;;;;;;39.50;18.48;;;6.50;98.00;;;;;;5091069;28;20020;-70
2023/02/16 02:42:53;;;;;;;39.35;18.85;;;6.50;98.00;;;;;;5091146;28;20458;-71
2023/02/16 02:45:26;;;;;;;42.47;19.08;;;6.50;98.10;;;;;;5089742;28;20433;-71
2023/02/16 02:47:52;;;;;;;45.30;19.42;;;6.40;98.10;;;;;;5089870;28;20369;-70
2023/02/16 02:51:32;;;;;;;44.22;19.33;;;6.40;98.20;;;;;;5090942;28;20032;-70
2023/02/16 02:53:33;;;;;;;45.40;18.58;;;6.40;98.30;;;;;;5079921;28;20032;-70
2023/02/16 03:01:36;;;;;;;43.97;18.33;;;6.20;98.60;;;;;;5091244;28;20100;-70
2023/02/16 03:04:05;;;;;;;39.47;19.08;;;6.20;98.60;;;;;;5090985;28;20024;-71
2023/02/16 03:06:35;;;;;;;44.83;20.48;;;6.30;98.60;;;;;;5090942;28;20042;-71
2023/02/16 03:09:10;;;;;;;41.42;19.77;;;6.30;98.60;;;;;;5089421;28;20054;-70
2023/02/16 03:14:29;;;;;;;42.85;18.45;;;6.30;98.70;;;;;;5090985;28;20373;-70
2023/02/16 03:30:49;;;;;;;44.53;18.83;;;6.30;98.70;;;;;;5094256;28;20476;-70
2023/02/16 03:33:15;;;;;;;;;;;6.20;98.70;;;;;;5095231;28;20110;-71
2023/02/16 03:35:42;;;;;;;39.53;18.23;;;6.30;98.80;;;;;;5094879;28;19908;-70
2023/02/16 03:38:08;;;;;;;46.03;20.58;;;6.20;98.80;;;;;;5094679;28;20063;-71
2023/02/16 03:40:35;;;;;;;54.30;20.63;;;6.30;98.90;;;;;;5095157;28;20060;-71
2023/02/16 03:43:05;;;;;;;46.70;20.70;;;6.30;98.90;;;;;;5094776;28;20032;-71
2023/02/16 03:45:33;;;;;;;47.42;19.80;;;6.30;98.90;;;;;;5094573;28;20097;-70
2023/02/16 03:47:59;;;;;;;47.20;21.42;;;6.30;99.00;;;;;;5094547;28;20465;-69
2023/02/16 03:50:26;;;;;;;41.38;20.05;;;6.30;98.90;;;;;;5093464;28;20051;-70
2023/02/16 03:52:52;;;;;;;43.55;20.90;;;6.20;98.80;;;;;;5094391;28;20024;-71
2023/02/16 03:55:18;;;;;;;55.20;22.58;;;6.20;98.90;;;;;;5093955;28;20115;-70
2023/02/16 03:57:44;;;;;;;46.75;21.10;;;6.20;99.00;;;;;;5094315;28;20111;-71
2023/02/16 04:00:10;;;;;;;50.40;20.80;;;6.20;99.00;;;;;;5094224;28;20478;-70
2023/02/16 04:02:36;;;;;;;49.38;21.27;;;6.10;99.10;;;;;;5093075;28;20047;-70
2023/02/16 04:05:02;;;;;;;49.45;21.33;;;6.10;99.20;;;;;;5093131;28;20058;-70
2023/02/16 04:07:27;;;;;;;44.47;20.38;;;6.20;99.10;;;;;;5093523;28;20039;-70
2023/02/16 04:09:53;;;;;;;49.08;22.05;;;6.10;99.20;;;;;;5093831;28;20127;-70
2023/02/16 04:12:36;;;;;;;45.92;20.60;;;6.10;99.00;;;;;;5093894;28;20050;-69
2023/02/16 04:15:08;;;;;;;52.38;22.40;;;6.10;98.90;;;;;;5093886;28;20036;-70
2023/02/16 04:17:34;;;;;;;45.63;21.45;;;6.10;98.90;;;;;;5094030;28;20048;-70
2023/02/16 04:20:00;;;;;;;50.47;21.27;;;6.10;99.00;;;;;;5092799;28;20085;-70
2023/02/16 04:22:25;;;;;;;44.72;20.13;;;6.00;99.20;;;;;;5094351;28;20032;-71
2023/02/16 04:24:51;;;;;;;46.92;20.35;;;6.00;99.10;;;;;;5093637;28;20039;-71
2023/02/16 04:27:17;;;;;;;50.15;21.80;;;6.00;99.20;;;;;;5093451;28;20072;-70
2023/02/16 04:29:42;;;;;;;45.00;19.88;;;5.80;99.10;;;;;;5093739;28;20050;-71
2023/02/16 04:32:08;;;;;;;52.70;22.35;;;5.90;99.30;;;;;;5092591;28;20035;-70
2023/02/16 04:34:34;;;;;;;49.03;20.42;;;5.80;99.10;;;;;;5094359;28;20032;-71
2023/02/16 04:37:01;;;;;;;47.08;21.90;;;5.90;99.30;;;;;;5093536;28;20046;-71
2023/02/16 04:39:26;;;;;;;56.75;22.60;;;5.90;99.30;;;;;;5093494;28;20055;-71
2023/02/16 04:41:52;;;;;;;54.40;23.60;;;5.90;99.50;;;;;;5092798;28;20052;-70
2023/02/16 04:44:18;;;;;;;50.92;21.92;;;5.90;99.60;;;;;;5093374;28;20381;-70
2023/02/16 04:46:43;;;;;;;58.40;23.63;;;5.80;99.60;;;;;;5093688;28;20032;-71
2023/02/16 04:49:09;;;;;;;49.58;22.70;;;5.90;99.80;;;;;;5093395;28;20085;-71
2023/02/16 04:51:35;;;;;;;48.97;22.88;;;5.90;99.60;;;;;;5093534;28;20028;-71
2023/02/16 04:54:00;;;;;;;49.78;22.48;;;5.90;99.60;;;;;;5093074;28;20458;-70
2023/02/16 04:56:27;;;;;;;50.70;23.08;;;6.00;99.60;;;;;;5093179;28;20028;-70
2023/02/16 04:58:53;;;;;;;53.65;23.67;;;5.90;99.60;;;;;;5092891;28;20077;-70
2023/02/16 05:01:23;;;;;;;49.70;23.05;;;5.90;99.60;;;;;;5093496;28;20039;-70
2023/02/16 05:03:48;;;;;;;49.75;23.20;;;5.90;99.80;;;;;;5092872;28;20028;-71
2023/02/16 05:06:15;;;;;;;52.92;22.73;;;5.90;99.80;;;;;;5092956;28;20025;-71
2023/02/16 05:08:40;;;;;;;55.63;24.30;;;5.90;99.70;;;;;;5092889;28;20055;-70
2023/02/16 05:16:35;;;;;;;53.38;22.60;;;5.90;99.90;;;;;;5093098;28;20043;-70
2023/02/16 05:19:00;;;;;;;50.72;23.15;;;5.90;99.90;;;;;;5092637;28;20024;-70
2023/02/16 05:21:32;;;;;;;54.35;22.88;;;5.90;99.90;;;;;;5092845;28;20119;-70
2023/02/16 05:24:11;;;;;;;51.58;23.05;;;5.90;99.90;;;;;;5092736;28;20040;-70
2023/02/16 05:26:38;;;;;;;54.58;24.00;;;5.90;99.90;;;;;;5091417;28;20028;-71
2023/02/16 05:29:04;;;;;;;50.58;23.00;;;6.00;99.90;;;;;;5092306;28;20567;-71
2023/02/16 05:31:30;;;;;;;55.30;24.13;;;6.00;99.90;;;;;;5092905;28;20111;-70
2023/02/16 05:33:56;;;;;;;54.20;23.40;;;6.00;99.90;;;;;;5092690;28;20111;-70
2023/02/16 05:36:23;;;;;;;54.33;24.42;;;6.00;99.90;;;;;;5091419;28;20497;-70
2023/02/16 05:38:49;;;;;;;50.95;23.42;;;6.00;99.90;;;;;;5091216;28;20143;-72
2023/02/16 05:41:22;;;;;;;54.13;23.83;;;6.00;99.90;;;;;;5092176;28;20083;-71
2023/02/16 05:43:54;;;;;;;51.85;23.20;;;6.00;99.90;;;;;;5092217;28;20473;-71
2023/02/16 05:46:21;;;;;;;58.05;24.45;;;6.00;99.90;;;;;;5091467;28;20039;-70
2023/02/16 05:48:48;;;;;;;51.58;22.35;;;6.00;99.90;;;;;;5092081;28;20032;-70
2023/02/16 05:51:13;;;;;;;57.65;24.23;;;6.00;99.90;;;;;;5090752;28;20535;-71
2023/02/16 05:53:39;;;;;;;58.95;24.10;;;6.00;99.90;;;;;;5091150;28;20346;-70
2023/02/16 05:56:05;;;;;;;52.33;24.13;;;5.90;99.90;;;;;;5090855;28;20032;-71
2023/02/16 05:58:31;;;;;;;55.20;24.23;;;6.00;99.90;;;;;;5092216;28;20276;-70
2023/02/16 06:00:57;;;;;;;56.25;23.58;;;6.00;99.90;;;;;;5091855;28;20028;-70
2023/02/16 06:03:23;;;;;;;55.70;25.52;;;6.00;99.90;;;;;;5091810;28;20032;-69
2023/02/16 06:05:53;;;;;;;52.97;22.90;;;6.00;99.90;;;;;;5091742;28;20028;-70
2023/02/16 06:08:19;;;;;;;57.22;24.08;;;6.00;99.90;;;;;;5091669;28;20094;-70
2023/02/16 06:10:45;;;;;;;55.17;24.30;;;6.00;99.90;;;;;;5092028;28;20032;-70
2023/02/16 06:13:11;;;;;;;59.58;25.10;;;6.10;99.90;;;;;;5091800;28;20035;-70
2023/02/16 06:15:37;;;;;;;55.78;23.63;;;6.10;99.90;;;;;;5091624;28;20025;-70
2023/02/16 06:18:03;;;;;;;52.97;23.55;;;6.10;99.90;;;;;;5091376;28;20032;-70
2023/02/16 06:20:28;;;;;;;59.47;24.38;;;6.00;99.90;;;;;;5091665;28;20453;-70
2023/02/16 06:22:54;;;;;;;55.42;24.20;;;6.10;99.90;;;;;;5091440;28;20031;-70
2023/02/16 06:25:19;;;;;;;55.83;23.55;;;6.00;99.90;;;;;;5091947;28;20042;-70
2023/02/16 06:27:45;;;;;;;53.58;24.08;;;6.10;99.90;;;;;;5091051;28;20048;-71
2023/02/16 06:30:11;;;;;;;52.80;22.58;;;6.10;99.90;;;;;;5091317;28;20017;-71
2023/02/16 06:32:37;;;;;;;53.58;23.85;;;6.00;99.90;;;;;;5091293;28;20390;-72
2023/02/16 06:35:03;;;;;;;57.67;24.70;;;6.10;99.90;;;;;;5091047;28;20039;-71
2023/02/16 06:37:29;;;;;;;56.85;24.23;;;6.10;99.90;;;;;;5091477;28;20028;-71
2023/02/16 06:39:54;;;;;;;53.25;23.65;;;6.10;99.90;;;;;;5091128;28;20386;-70
2023/02/16 06:42:20;;;;;;;55.22;24.15;;;6.10;99.90;;;;;;5090993;28;20028;-72
2023/02/16 06:44:46;;;;;;;55.60;23.50;;;6.10;99.90;;;;;;5090854;28;20028;-71
2023/02/16 06:47:12;;;;;;;56.42;24.42;;;6.10;99.90;;;;;;5090832;28;20043;-71
2023/02/16 06:49:38;;;;;;;58.78;24.75;;;6.10;99.90;;;;;;5090260;28;20024;-71
2023/02/16 06:52:04;;;;;;;53.10;23.08;;;6.10;99.90;;;;;;5090749;28;20123;-72
2023/02/16 06:54:29;;;;;;;50.65;22.63;;;6.20;99.90;;;;;;5090679;28;20111;-71
2023/02/16 06:56:55;;;;;;;50.92;23.77;;;6.20;99.90;;;;;;5090699;28;20114;-71
2023/02/16 06:59:21;;;;;;;58.50;25.20;;;6.20;99.80;;;;;;5090661;28;20051;-70
2023/02/16 07:01:46;;;;;;;53.83;23.85;;;6.20;99.80;;;;;;5091143;28;20054;-72
2023/02/16 07:04:12;;;;;;;58.85;23.83;;;6.20;99.70;;;;;;5090542;28;20427;-74
2023/02/16 07:06:38;;;;;;;54.22;24.67;;;6.20;99.80;;;;;;5091045;28;20161;-71
2023/02/16 07:09:04;;;;;;;56.70;25.00;;;6.30;99.80;;;;;;5090670;28;20085;-69
2023/02/16 07:11:30;;;;;;;52.10;23.10;;;6.30;99.70;;;;;;5090766;28;20028;-71
2023/02/16 07:13:55;;;;;;;49.78;22.27;;;6.30;99.60;;;;;;5090680;28;20023;-72
2023/02/16 07:16:21;;;;;;;59.83;24.38;;;6.30;99.70;;;;;;5089945;28;20016;-72
2023/02/16 07:18:47;;;;;;;50.67;23.00;;;6.30;99.60;;;;;;5089547;28;20047;-73
2023/02/16 07:21:13;;;;;;;58.42;26.52;;;6.30;99.60;;;;;;5050472;28;20060;-72
2023/02/16 07:23:38;;;;;;;62.20;24.67;;;6.40;99.60;;;;;;5050416;28;20044;-72
2023/02/16 07:26:04;;;;;;;57.03;23.38;;;6.40;99.60;;;;;;5050265;28;20033;-73
2023/02/16 07:28:30;;;;;;;56.70;23.48;;;6.50;99.60;;;;;;5051021;28;20498;-72
2023/02/16 07:30:56;;;;;;;61.70;25.70;;;6.40;99.50;;;;;;5051137;28;20025;-71
2023/02/16 07:33:21;;;;;;;54.80;25.10;;;6.40;99.40;;;;;;5050572;28;20522;-71
2023/02/16 07:35:49;;;;;;;49.40;22.20;;;6.40;99.40;;;;;;5050289;28;20043;-70
2023/02/16 07:38:14;;;;;;;47.97;22.70;;;6.40;99.50;;;;;;5049966;28;20048;-73
2023/02/16 07:40:40;;;;;;;49.65;22.33;;;6.50;99.40;;;;;;5050539;28;20033;-72
2023/02/16 07:43:07;;;;;;;52.60;21.90;;;6.50;99.30;;;;;;5050186;28;20033;-75
2023/02/16 07:45:33;;;;;;;54.17;23.15;;;6.60;99.20;;;;;;5049983;28;20068;-72
2023/02/16 07:48:00;;;;;;;52.38;24.17;;;6.60;99.20;;;;;;5050140;28;20041;-75
2023/02/16 07:50:26;;;;;;;52.65;23.83;;;6.60;99.20;;;;;;5050554;28;20406;-74
2023/02/16 07:52:51;;;;;;;51.22;23.58;;;6.70;99.20;;;;;;5050543;28;20037;-72
2023/02/16 07:55:17;;;;;;;49.55;21.92;;;6.70;99.00;;;;;;5050328;28;20025;-70
2023/02/16 07:57:43;;;;;;;51.42;22.75;;;6.80;99.00;;;;;;5049882;28;20095;-70
2023/02/16 08:00:09;;;;;;;48.05;22.35;;;6.90;99.00;;;;;;5049828;28;20478;-73
2023/02/16 08:02:35;;;;;;;47.72;22.52;;;7.00;98.80;;;;;;5049798;28;20044;-73
2023/02/16 08:05:01;;;;;;;44.65;21.25;;;7.00;98.70;;;;;;5049808;28;20021;-74
2023/02/16 08:07:27;;;;;;;49.58;22.35;;;7.10;98.60;;;;;;5050385;28;20037;-74
2023/02/16 08:09:53;;;;;;;53.33;22.52;;;7.20;98.50;;;;;;5048985;28;20074;-73
2023/02/16 08:12:19;;;;;;;52.85;21.33;;;7.10;98.30;;;;;;5050029;28;20052;-75
2023/02/16 08:14:48;;;;;;;51.40;20.80;;;7.10;98.30;;;;;;5049663;28;20091;-73
2023/02/16 08:17:13;;;;;;;46.70;21.15;;;7.20;98.20;;;;;;5051965;28;20037;-74
2023/02/16 08:19:39;;;;;;;50.35;22.38;;;7.20;98.20;;;;;;5054075;28;20464;-72
2023/02/16 08:22:06;;;;;;;48.47;21.25;;;7.20;98.10;;;;;;5053413;28;20044;-72
2023/02/16 08:24:33;;;;;;;44.80;20.70;;;7.20;98.00;;;;;;5052176;28;20055;-72
2023/02/16 08:26:59;;;;;;;48.70;21.70;;;7.40;98.00;;;;;;5053113;28;20037;-74
2023/02/16 08:29:25;;;;;;;45.72;21.08;;;7.40;98.20;;;;;;5053259;28;20045;-75
2023/02/16 08:31:52;;;;;;;50.50;22.05;;;7.40;97.80;;;;;;5052022;28;20410;-75
2023/02/16 08:34:19;;;;;;;45.17;21.05;;;7.50;97.80;;;;;;5053767;28;20025;-73
2023/02/16 08:36:46;;;;;;;40.27;19.50;;;7.60;97.70;;;;;;5053241;28;20067;-72
2023/02/16 08:39:18;;;;;;;55.53;25.20;;;7.60;97.50;;;;;;5052009;28;20025;-70
2023/02/16 08:41:46;;;;;;;45.90;21.80;;;7.80;97.60;;;;;;5051787;28;20033;-73
2023/02/16 08:44:14;;;;;;;43.38;20.70;;;7.90;97.40;;;;;;5052812;28;20061;-73
2023/02/16 08:46:41;;;;;;;42.15;20.73;;;8.10;97.40;;;;;;5052203;28;20021;-72
2023/02/16 08:49:08;;;;;;;47.25;21.08;;;8.30;97.10;;;;;;5052836;28;20029;-71
2023/02/16 08:51:37;;;;;;;43.13;20.95;;;8.50;96.80;;;;;;5052525;28;20067;-70
2023/02/16 08:54:06;;;;;;;43.25;18.48;;;8.80;96.70;;;;;;5052905;28;20033;-74
2023/02/16 08:56:33;;;;;;;45.53;21.05;;;9.30;96.10;;;;;;5051700;28;20067;-74
2023/02/16 08:58:59;;;;;;;43.38;20.50;;;9.70;96.10;;;;;;5052836;28;20068;-74
2023/02/16 09:01:24;;;;;;;41.00;18.98;;;10.20;94.70;;;;;;5053110;28;20029;-73
2023/02/16 09:03:51;;;;;;;38.90;19.30;;;10.30;94.10;;;;;;5052516;28;20515;-71
2023/02/16 09:06:21;;;;;;;67.43;32.33;;;10.50;93.90;;;;;;5052333;28;20087;-72
2023/02/16 09:08:55;;;;;;;128.35;64.43;;;10.50;93.40;;;;;;5053101;28;20056;-74
2023/02/16 09:11:22;;;;;;;43.15;21.58;;;10.40;93.40;;;;;;5051241;28;20167;-73
2023/02/16 09:13:48;;;;;;;38.45;19.15;;;10.40;93.30;;;;;;5051578;28;20499;-72
2023/02/16 09:16:21;;;;;;;36.13;17.77;;;10.30;93.20;;;;;;5051861;28;20455;-72
2023/02/16 09:18:47;;;;;;;41.47;19.38;;;10.20;93.10;;;;;;5052331;28;20041;-73
2023/02/16 09:21:19;;;;;;;42.05;20.55;;;10.10;93.20;;;;;;5052418;28;20046;-70
2023/02/16 09:23:47;;;;;;;39.25;19.20;;;10.00;93.20;;;;;;5052273;28;20079;-69
2023/02/16 09:26:14;;;;;;;40.58;19.80;;;9.90;94.00;;;;;;5052380;28;20052;-70
2023/02/16 09:28:40;;;;;;;47.30;21.05;;;10.00;93.70;;;;;;5052409;28;20477;-70
2023/02/16 09:31:10;;;;;;;47.90;21.38;;;10.00;93.90;;;;;;5052115;28;20104;-69
2023/02/16 09:33:36;;;;;;;36.85;18.98;;;10.00;93.70;;;;;;5052067;28;20048;-73
2023/02/16 09:36:06;;;;;;;39.00;19.40;;;10.00;93.70;;;;;;5051149;28;20032;-71
2023/02/16 09:38:32;;;;;;;41.42;19.20;;;10.00;93.90;;;;;;5052066;28;20033;-70
2023/02/16 09:41:04;;;;;;;44.78;18.38;;;10.00;93.70;;;;;;5051931;28;20517;-70
2023/02/16 09:43:46;;;;;;;39.65;18.63;;;10.00;94.10;;;;;;5052300;28;20035;-71
2023/02/16 09:46:17;;;;;;;70.07;36.13;;;10.00;93.80;;;;;;5052090;28;20033;-71
2023/02/16 09:48:47;;;;;;;39.63;18.30;;;10.10;93.70;;;;;;5052059;28;20187;-71
2023/02/16 09:51:27;;;;;;;41.80;18.98;;;10.10;93.80;;;;;;5051986;28;20064;-73
2023/02/16 09:54:21;;;;;;;36.72;18.42;;;10.10;93.70;;;;;;5052015;28;20025;-70
2023/02/16 09:57:07;;;;;;;40.63;17.77;;;10.10;93.60;;;;;;5051797;28;20040;-69
2023/02/16 09:59:33;;;;;;;41.60;18.90;;;10.10;93.70;;;;;;5051863;28;20056;-69
2023/02/16 10:02:10;;;;;;;45.40;18.73;;;10.10;93.50;;;;;;5051779;28;20016;-71
2023/02/16 10:05:02;;;;;;;43.28;18.48;;;10.10;93.60;;;;;;5052590;28;20100;-70
2023/02/16 10:08:06;;;;;;;40.38;17.85;;;10.20;93.60;;;;;;5051704;28;20132;-71
2023/02/16 10:11:06;;;;;;;39.67;18.48;;;10.10;93.60;;;;;;5050411;28;20485;-73
2023/02/16 10:13:48;;;;;;;46.97;19.67;;;10.10;93.40;;;;;;5051376;28;20040;-71
2023/02/16 10:16:21;;;;;;;40.60;17.83;;;10.20;93.50;;;;;;5050611;28;20174;-70
2023/02/16 10:18:50;;;;;;;40.90;19.85;;;10.20;93.50;;;;;;5050190;28;20367;-70
2023/02/16 10:21:21;;;;;;;42.88;19.35;;;10.10;93.40;;;;;;5051406;28;20460;-72
2023/02/16 10:23:52;;;;;;;40.10;18.42;;;10.10;93.30;;;;;;5051299;28;20036;-71
2023/02/16 10:26:32;;;;;;;40.22;18.70;;;10.10;93.20;;;;;;5049954;28;20037;-70
2023/02/16 10:29:14;;;;;;;38.22;18.20;;;10.10;93.10;;;;;;5049823;28;20410;-69
2023/02/16 10:31:58;;;;;;;40.17;17.70;;;10.20;93.10;;;;;;5051853;28;20035;-71
2023/02/16 10:34:35;;;;;;;38.15;18.27;;;10.20;93.20;;;;;;5051370;28;20064;-69
2023/02/16 10:37:26;;;;;;;35.53;17.42;;;10.10;93.10;;;;;;5050970;28;20352;-71
2023/02/16 10:40:08;;;;;;;41.72;18.35;;;10.30;93.30;;;;;;5050324;28;20025;-71
2023/02/16 10:42:52;;;;;;;37.50;19.05;;;10.30;93.10;;;;;;5049858;28;20040;-71
2023/02/16 10:45:49;;;;;;;44.60;17.92;;;10.40;93.20;;;;;;5050898;28;20336;-72
2023/02/16 10:48:14;;;;;;;37.75;17.85;;;10.40;93.10;;;;;;5049700;28;20108;-72
2023/02/16 10:50:45;;;;;;;36.42;17.73;;;10.50;92.90;;;;;;5050569;28;20048;-71
2023/02/16 10:53:20;;;;;;;40.08;19.58;;;10.60;92.80;;;;;;5050591;28;20024;-71
2023/02/16 10:55:45;;;;;;;41.53;18.58;;;10.80;92.70;;;;;;5049923;28;20482;-71
2023/02/16 10:58:27;;;;;;;38.22;17.58;;;10.90;92.70;;;;;;5049511;28;20033;-71
2023/02/16 11:01:13;;;;;;;38.05;18.30;;;11.00;92.30;;;;;;5050713;28;20374;-72
2023/02/16 11:03:45;;;;;;;37.03;18.58;;;10.90;92.20;;;;;;5050492;28;20422;-71
2023/02/16 11:06:17;;;;;;;41.20;19.13;;;11.10;92.30;;;;;;5050474;28;20025;-71
2023/02/16 11:08:53;;;;;;;31.90;17.05;;;11.10;92.10;;;;;;5050235;28;20056;-71
2023/02/16 11:11:21;;;;;;;41.10;19.25;;;11.00;92.00;;;;;;5050298;28;20511;-72
2023/02/16 11:13:49;;;;;;;41.55;18.92;;;11.00;92.10;;;;;;5050684;28;20048;-70
2023/02/16 11:16:23;;;;;;;37.83;18.35;;;11.00;92.00;;;;;;5050612;28;20044;-70
2023/02/16 11:19:20;;;;;;;36.10;17.67;;;11.00;92.10;;;;;;5048867;28;20033;-70
2023/02/16 11:21:49;;;;;;;45.13;19.80;;;11.00;92.10;;;;;;5048221;28;20033;-68
2023/02/16 11:24:36;;;;;;;36.05;18.55;;;11.10;92.20;;;;;;5049083;28;20053;-69
2023/02/16 11:27:20;;;;;;;44.67;20.30;;;11.10;92.10;;;;;;5049139;28;20037;-69
2023/02/16 11:29:46;;;;;;;43.38;19.52;;;11.10;92.10;;;;;;5050010;28;20025;-68
2023/02/16 11:32:15;;;;;;;41.20;19.00;;;11.00;92.00;;;;;;5050272;28;20087;-67
2023/02/16 11:34:43;;;;;;;41.30;19.00;;;11.00;92.00;;;;;;5049749;28;20455;-70
2023/02/16 11:37:15;;;;;;;38.47;18.75;;;11.00;92.00;;;;;;5049844;28;20033;-68
2023/02/16 11:39:49;;;;;;;34.70;19.08;;;10.90;92.00;;;;;;5049085;28;20120;-72
2023/02/16 11:42:30;;;;;;;39.80;18.30;;;11.00;92.20;;;;;;5050147;28;20341;-74
2023/02/16 11:44:58;;;;;;;35.75;17.92;;;11.00;92.20;;;;;;5048909;28;20022;-73
2023/02/16 11:47:27;;;;;;;40.20;18.83;;;11.00;92.00;;;;;;5049157;28;20037;-71
2023/02/16 11:50:18;;;;;;;37.05;17.85;;;11.00;92.10;;;;;;5048890;28;20061;-72
2023/02/16 11:52:47;;;;;;;39.38;18.67;;;11.00;92.00;;;;;;5053507;28;20017;-72
2023/02/16 11:55:27;;;;;;;39.53;19.40;;;10.90;92.00;;;;;;5054531;28;20083;-75
2023/02/16 11:57:55;;;;;;;34.53;16.65;;;10.90;92.00;;;;;;5052632;28;20136;-74
2023/02/16 12:00:22;;;;;;;;;;;11.00;92.20;;;;;;5054254;28;20029;-72
2023/02/16 12:03:08;;;;;;;32.47;16.60;;;10.80;92.10;;;;;;5052562;28;19989;-74
2023/02/16 12:05:37;;;;;;;36.22;17.48;;;10.70;92.30;;;;;;5052357;28;20037;-71
2023/02/16 12:08:23;;;;;;;36.80;17.50;;;10.70;92.40;;;;;;5053214;28;20029;-74
2023/02/16 12:11:03;;;;;;;38.83;17.35;;;10.70;92.40;;;;;;5052368;28;20025;-74
2023/02/16 12:13:35;;;;;;;37.00;17.73;;;10.70;92.50;;;;;;5054030;28;20028;-72
2023/02/16 12:16:21;;;;;;;38.15;18.38;;;10.80;92.60;;;;;;5052330;28;20043;-73
2023/02/16 12:19:17;;;;;;;42.10;18.35;;;10.90;92.50;;;;;;5053723;28;20043;-71
2023/02/16 12:21:51;;;;;;;38.97;18.83;;;10.90;92.50;;;;;;5053751;28;20041;-71
2023/02/16 12:24:23;;;;;;;50.25;21.15;;;10.90;92.60;;;;;;5052642;28;20104;-73
2023/02/16 12:26:50;;;;;;;39.90;17.63;;;10.90;92.50;;;;;;5053666;28;20041;-72
2023/02/16 12:29:25;;;;;;;37.43;18.10;;;11.00;92.80;;;;;;5053126;28;20465;-73
2023/02/16 12:31:56;;;;;;;37.22;18.30;;;11.00;92.60;;;;;;5052161;28;20036;-72
2023/02/16 12:34:31;;;;;;;34.35;16.75;;;11.10;92.70;;;;;;5052754;28;20021;-72
2023/02/16 12:37:15;;;;;;;38.60;18.77;;;11.00;92.70;;;;;;5052432;28;20033;-73
2023/02/16 12:39:59;;;;;;;37.05;17.23;;;11.00;92.40;;;;;;5053306;28;20059;-72
2023/02/16 12:42:28;;;;;;;47.55;18.83;;;11.10;92.50;;;;;;5053222;28;20371;-74
2023/02/16 12:44:59;;;;;;;36.45;17.00;;;11.00;92.40;;;;;;5053332;28;20037;-74
2023/02/16 12:47:31;;;;;;;40.95;18.25;;;11.00;92.60;;;;;;5053316;28;20106;-73
2023/02/16 12:50:13;;;;;;;41.70;20.17;;;11.10;92.60;;;;;;5052674;28;20048;-73
2023/02/16 12:52:50;;;;;;;34.15;17.63;;;11.30;92.60;;;;;;5053458;28;20018;-72
2023/02/16 12:55:16;;;;;;;38.30;18.42;;;11.20;92.40;;;;;;5052227;28;20086;-71
2023/02/16 12:57:48;;;;;;;32.13;16.50;;;11.10;92.40;;;;;;5053228;28;20033;-73
2023/02/16 13:00:24;;;;;;;29.33;16.20;;;11.20;92.50;;;;;;5051895;28;20037;-71
2023/02/16 13:02:57;;;;;;;33.35;15.25;;;11.30;92.20;;;;;;5052238;28;20037;-73
2023/02/16 13:05:29;;;;;;;28.35;16.08;;;11.30;92.10;;;;;;5052777;28;20056;-73
2023/02/16 13:08:06;;;;;;;33.40;16.77;;;11.30;92.10;;;;;;5052801;28;20128;-72
2023/02/16 13:10:38;;;;;;;222.00;110.78;;;11.30;91.90;;;;;;5053229;28;20028;-73
2023/02/16 13:13:07;;;;;;;46.90;23.92;;;11.30;92.10;;;;;;5052566;28;20063;-72
2023/02/16 13:15:46;;;;;;;28.45;15.60;;;11.30;92.20;;;;;;5052330;28;20037;-73
2023/02/16 13:18:20;;;;;;;30.70;16.20;;;11.30;92.00;;;;;;5051044;28;20052;-72
2023/02/16 13:20:57;;;;;;;32.53;15.70;;;11.20;92.10;;;;;;5051160;28;20036;-73
2023/02/16 13:23:40;;;;;;;31.45;15.57;;;11.20;92.10;;;;;;5052617;28;20098;-73
2023/02/16 13:26:20;;;;;;;38.42;17.70;;;11.20;91.90;;;;;;5052201;28;20025;-73
2023/02/16 13:29:13;;;;;;;32.83;16.25;;;11.10;92.10;;;;;;5052418;28;20041;-71
2023/02/16 13:32:16;;;;;;;28.92;16.23;;;11.10;92.10;;;;;;5052395;28;20106;-72
2023/02/16 13:35:07;;;;;;;31.25;15.48;;;11.20;92.10;;;;;;5052177;28;20036;-72